createdAt,value
2022-08-27T00:00:19.167Z,101263.31
2022-08-27T00:02:49.147Z,101257.47
2022-08-27T00:05:19.311Z,101268.97
2022-08-27T00:07:49.993Z,101261.38
2022-08-27T00:10:21.864Z,101259.97
2022-08-27T00:12:50.611Z,101262.25
2022-08-27T00:15:21.611Z,101261.47
2022-08-27T00:17:50.297Z,101264.59
2022-08-27T00:20:22.228Z,101262.19
2022-08-27T00:22:52.346Z,101258.41
2022-08-27T00:25:22.121Z,101269.16
2022-08-27T00:27:50.741Z,101262.94
2022-08-27T00:30:21.523Z,101257.63
2022-08-27T00:32:50.544Z,101262.69
2022-08-27T00:35:19.595Z,101259.66
2022-08-27T00:37:48.213Z,101258.16
2022-08-27T00:40:21.402Z,101254.16
2022-08-27T00:42:50.483Z,101265.06
2022-08-27T00:45:21.439Z,101265.50
2022-08-27T00:47:54.763Z,101266.75
2022-08-27T00:50:32.043Z,101260.94
2022-08-27T00:53:03.875Z,101263.13
2022-08-27T00:55:38.156Z,101258.22
2022-08-27T00:58:12.147Z,101255.38
2022-08-27T01:00:41.629Z,101270.47
2022-08-27T01:03:10.441Z,101268.06
2022-08-27T01:05:40.171Z,101259.97
2022-08-27T01:08:13.126Z,101258.94
2022-08-27T01:10:44.255Z,101252.69
2022-08-27T01:13:15.789Z,101249.88
2022-08-27T01:15:44.771Z,101261.34
2022-08-27T01:18:14.424Z,101251.41
2022-08-27T01:20:47.915Z,101253.06
2022-08-27T01:23:22.683Z,101252.25
2022-08-27T01:25:53.253Z,101255.16
2022-08-27T01:28:23.649Z,101247.38
2022-08-27T01:30:59.778Z,101255.16
2022-08-27T01:33:28.394Z,101237.13
2022-08-27T01:35:57.013Z,101248.59
2022-08-27T01:38:30.421Z,101242.25
2022-08-27T01:41:02.040Z,101244.97
2022-08-27T01:43:31.346Z,101243.50
2022-08-27T01:46:00.711Z,101243.75
2022-08-27T01:48:29.486Z,101240.94
2022-08-27T01:50:58.122Z,101234.59
2022-08-27T01:53:28.098Z,101238.28
2022-08-27T01:55:57.577Z,101235.00
2022-08-27T01:58:30.971Z,101235.66
2022-08-27T02:01:02.935Z,101239.47
2022-08-27T02:03:31.907Z,101239.38
2022-08-27T02:06:01.681Z,101226.50
2022-08-27T02:08:30.272Z,101236.13
2022-08-27T02:10:58.976Z,101239.22
2022-08-27T02:13:29.326Z,101233.94
2022-08-27T02:18:26.574Z,101237.59
2022-08-27T02:20:55.213Z,101227.81
2022-08-27T02:23:23.869Z,101238.41
2022-08-27T02:25:52.488Z,101229.97
2022-08-27T02:28:21.079Z,101228.94
2022-08-27T02:30:51.050Z,101230.63
2022-08-27T02:33:19.632Z,101234.47
2022-08-27T02:35:48.228Z,101238.28
2022-08-27T02:38:16.874Z,101236.13
2022-08-27T02:40:45.611Z,101239.97
2022-08-27T02:43:16.028Z,101235.91
2022-08-27T02:45:55.172Z,101226.69
2022-08-27T02:48:24.700Z,101226.16
2022-08-27T02:50:53.483Z,101227.56
2022-08-27T02:53:23.993Z,101225.94
2022-08-27T02:55:53.099Z,101228.88
2022-08-27T02:58:21.693Z,101230.59
2022-08-27T03:00:50.355Z,101229.78
2022-08-27T03:03:20.322Z,101230.91
2022-08-27T03:05:49.189Z,101222.22
2022-08-27T03:08:17.822Z,101224.78
2022-08-27T03:10:46.881Z,101225.88
2022-08-27T03:13:15.488Z,101227.59
2022-08-27T03:15:44.156Z,101229.31
2022-08-27T03:18:21.851Z,101229.81
2022-08-27T03:20:55.761Z,101222.34
2022-08-27T03:23:26.566Z,101217.47
2022-08-27T03:25:57.087Z,101222.75
2022-08-27T03:28:27.297Z,101218.88
2022-08-27T03:31:00.574Z,101220.25
2022-08-27T03:33:30.490Z,101222.09
2022-08-27T03:36:00.787Z,101228.03
2022-08-27T03:38:29.647Z,101225.03
2022-08-27T03:40:58.292Z,101233.00
2022-08-27T03:43:27.315Z,101230.88
2022-08-27T03:46:01.863Z,101222.75
2022-08-27T03:48:32.478Z,101233.03
2022-08-27T03:51:08.013Z,101231.50
2022-08-27T03:53:37.741Z,101231.59
2022-08-27T03:56:07.381Z,101233.63
2022-08-27T03:58:37.505Z,101226.09
2022-08-27T04:01:08.630Z,101223.78
2022-08-27T04:03:37.899Z,101228.34
2022-08-27T04:06:08.553Z,101222.78
2022-08-27T04:08:37.249Z,101230.88
2022-08-27T04:11:07.633Z,101220.50
2022-08-27T04:13:36.218Z,101220.09
2022-08-27T04:16:07.650Z,101234.22
2022-08-27T04:18:36.284Z,101227.34
2022-08-27T04:21:12.836Z,101236.47
2022-08-27T04:23:42.447Z,101234.25
2022-08-27T04:26:12.818Z,101231.13
2022-08-27T04:28:41.461Z,101234.53
2022-08-27T04:31:16.296Z,101232.84
2022-08-27T04:33:51.006Z,101239.00
2022-08-27T04:36:22.162Z,101237.34
2022-08-27T04:38:51.256Z,101236.56
2022-08-27T04:41:25.093Z,101246.66
2022-08-27T04:43:56.259Z,101247.88
2022-08-27T04:46:27.027Z,101237.06
2022-08-27T04:48:56.917Z,101246.19
2022-08-27T04:51:27.493Z,101254.28
2022-08-27T04:53:56.805Z,101254.28
2022-08-27T04:56:29.990Z,101255.53
2022-08-27T04:58:59.059Z,101256.81
2022-08-27T05:01:29.807Z,101253.81
2022-08-27T05:03:59.673Z,101257.16
2022-08-27T05:06:30.052Z,101250.94
2022-08-27T05:08:59.078Z,101253.56
2022-08-27T05:11:32.435Z,101257.50
2022-08-27T05:14:02.997Z,101262.47
2022-08-27T05:16:32.488Z,101266.13
2022-08-27T05:19:01.531Z,101263.91
2022-08-27T05:21:35.804Z,101266.94
2022-08-27T05:24:07.489Z,101261.41
2022-08-27T05:26:38.015Z,101263.91
2022-08-27T05:29:07.219Z,101264.38
2022-08-27T05:31:36.786Z,101255.94
2022-08-27T05:34:10.263Z,101269.19
2022-08-27T05:36:48.635Z,101271.41
2022-08-27T05:39:18.396Z,101265.84
2022-08-27T05:41:47.145Z,101268.34
2022-08-27T05:44:40.696Z,101264.72
2022-08-27T05:47:06.253Z,101267.84
2022-08-27T05:49:34.903Z,101272.88
2022-08-27T05:52:08.913Z,101267.78
2022-08-27T05:54:37.589Z,101258.63
2022-08-27T05:57:06.772Z,101263.34
2022-08-27T05:59:52.705Z,101264.75
2022-08-27T06:02:21.891Z,101264.78
2022-08-27T06:04:50.715Z,101264.47
2022-08-27T06:07:21.057Z,101269.22
2022-08-27T06:09:49.672Z,101268.44
2022-08-27T06:12:18.335Z,101274.50
2022-08-27T06:14:46.919Z,101260.47
2022-08-27T06:17:15.544Z,101269.38
2022-08-27T06:19:45.802Z,101276.28
2022-08-27T06:22:14.779Z,101279.34
2022-08-27T06:24:45.113Z,101279.63
2022-08-27T06:27:16.239Z,101283.34
2022-08-27T06:29:45.725Z,101274.16
2022-08-27T06:32:15.107Z,101276.09
2022-08-27T06:34:43.952Z,101273.09
2022-08-27T06:37:12.633Z,101269.25
2022-08-27T06:39:41.825Z,101267.19
2022-08-27T06:42:14.008Z,101269.94
2022-08-27T06:44:42.832Z,101272.53
2022-08-27T06:47:12.181Z,101273.47
2022-08-27T06:49:46.188Z,101276.88
2022-08-27T06:52:15.327Z,101280.94
2022-08-27T06:54:45.039Z,101277.47
2022-08-27T06:57:15.037Z,101282.97
2022-08-27T06:59:44.145Z,101280.19
2022-08-27T07:02:12.904Z,101275.41
2022-08-27T07:04:41.564Z,101274.56
2022-08-27T07:07:13.741Z,101271.69
2022-08-27T07:09:42.637Z,101271.47
2022-08-27T07:12:11.303Z,101269.25
2022-08-27T07:14:41.266Z,101282.84
2022-08-27T07:17:11.193Z,101277.66
2022-08-27T07:19:44.736Z,101281.09
2022-08-27T07:22:13.976Z,101279.56
2022-08-27T07:24:42.627Z,101279.44
2022-08-27T07:27:11.656Z,101277.09
2022-08-27T07:29:41.616Z,101275.75
2022-08-27T07:32:10.510Z,101275.94
2022-08-27T07:34:39.134Z,101275.66
2022-08-27T07:37:07.965Z,101278.97
2022-08-27T07:39:36.585Z,101290.47
2022-08-27T07:42:31.329Z,101285.00
2022-08-27T07:45:01.342Z,101290.94
2022-08-27T07:47:30.109Z,101289.94
2022-08-27T07:49:59.891Z,101294.50
2022-08-27T07:52:28.736Z,101288.31
2022-08-27T07:54:57.486Z,101286.91
2022-08-27T07:57:26.203Z,101294.00
2022-08-27T07:59:54.937Z,101298.13
2022-08-27T08:02:24.981Z,101297.66
2022-08-27T08:04:53.848Z,101297.16
2022-08-27T08:07:22.463Z,101302.03
2022-08-27T08:09:51.083Z,101296.34
2022-08-27T08:12:26.288Z,101298.63
2022-08-27T08:14:58.064Z,101306.03
2022-08-27T08:17:28.160Z,101303.88
2022-08-27T08:20:19.570Z,101306.25
2022-08-27T08:22:47.993Z,101299.41
2022-08-27T08:25:16.958Z,101309.63
2022-08-27T08:27:45.910Z,101305.38
2022-08-27T08:30:14.779Z,101312.31
2022-08-27T08:32:44.744Z,101314.44
2022-08-27T08:35:13.495Z,101311.13
2022-08-27T08:37:44.765Z,101309.19
2022-08-27T08:40:25.439Z,101323.38
2022-08-27T08:42:56.657Z,101323.03
2022-08-27T08:45:30.706Z,101318.50
2022-08-27T08:48:07.603Z,101318.69
2022-08-27T08:50:40.398Z,101318.28
2022-08-27T08:53:15.483Z,101324.06
2022-08-27T08:55:48.955Z,101330.88
2022-08-27T08:58:26.524Z,101322.69
2022-08-27T09:00:59.678Z,101326.97
2022-08-27T09:03:31.351Z,101325.00
2022-08-27T09:06:04.670Z,101327.97
2022-08-27T09:08:40.653Z,101330.13
2022-08-27T09:11:18.800Z,101334.09
2022-08-27T09:13:51.676Z,101334.06
2022-08-27T09:16:20.474Z,101332.97
2022-08-27T09:18:51.123Z,101338.47
2022-08-27T09:21:33.165Z,101333.59
2022-08-27T09:24:09.002Z,101336.63
2022-08-27T09:26:41.304Z,101332.44
2022-08-27T09:29:20.103Z,101341.44
2022-08-27T09:31:55.546Z,101329.78
2022-08-27T09:34:27.314Z,101334.56
2022-08-27T09:37:09.911Z,101338.75
2022-08-27T09:39:49.092Z,101341.88
2022-08-27T09:42:38.531Z,101340.88
2022-08-27T09:45:11.886Z,101334.75
2022-08-27T09:47:45.467Z,101323.38
2022-08-27T09:50:18.497Z,101332.13
2022-08-27T09:52:55.178Z,101323.78
2022-08-27T09:55:37.359Z,101330.53
2022-08-27T09:58:07.115Z,101327.47
2022-08-27T10:00:39.345Z,101335.22
2022-08-27T10:03:10.259Z,101330.41
2022-08-27T10:05:44.447Z,101343.66
2022-08-27T10:08:23.387Z,101332.69
2022-08-27T10:11:00.552Z,101336.84
2022-08-27T10:13:34.670Z,101335.28
2022-08-27T10:16:27.375Z,101331.47
2022-08-27T10:19:05.146Z,101337.72
2022-08-27T10:21:44.582Z,101332.63
2022-08-27T10:24:22.047Z,101345.69
2022-08-27T10:27:02.105Z,101339.38
2022-08-27T10:29:39.570Z,101344.22
2022-08-27T10:32:19.731Z,101345.13
2022-08-27T10:35:04.347Z,101349.44
2022-08-27T10:37:44.444Z,101336.22
2022-08-27T10:40:21.885Z,101336.91
2022-08-27T10:42:57.758Z,101336.44
2022-08-27T10:45:41.837Z,101334.38
2022-08-27T10:48:25.216Z,101332.28
2022-08-27T10:51:02.664Z,101328.13
2022-08-27T10:53:44.196Z,101333.75
2022-08-27T10:56:20.382Z,101333.41
2022-08-27T10:59:03.608Z,101334.94
2022-08-27T11:01:43.323Z,101327.69
2022-08-27T11:04:19.465Z,101330.97
2022-08-27T11:06:53.858Z,101327.28
2022-08-27T11:09:31.274Z,101334.00
2022-08-27T11:12:14.173Z,101332.78
2022-08-27T11:14:49.329Z,101324.69
2022-08-27T11:17:24.367Z,101318.50
2022-08-27T11:20:00.146Z,101320.94
2022-08-27T11:22:34.611Z,101317.09
2022-08-27T11:25:12.151Z,101322.72
2022-08-27T11:27:41.827Z,101323.59
2022-08-27T11:30:20.130Z,101319.00
2022-08-27T11:33:00.121Z,101314.94
2022-08-27T11:35:40.251Z,101316.50
2022-08-27T11:38:33.909Z,101315.53
2022-08-27T11:41:45.180Z,101315.19
2022-08-27T11:44:15.599Z,101315.03
2022-08-27T11:46:47.153Z,101325.81
2022-08-27T11:49:28.414Z,101320.69
2022-08-27T11:52:03.497Z,101318.44
2022-08-27T11:54:45.423Z,101311.59
2022-08-27T11:57:28.349Z,101314.72
2022-08-27T11:59:56.998Z,101311.75
2022-08-27T12:02:27.767Z,101312.28
2022-08-27T12:05:08.591Z,101314.44
2022-08-27T12:07:40.649Z,101323.06
2022-08-27T12:10:31.176Z,101302.78
2022-08-27T12:13:18.197Z,101311.81
2022-08-27T12:15:56.661Z,101305.13
2022-08-27T12:18:57.223Z,101309.69
2022-08-27T12:21:36.446Z,101307.16
2022-08-27T12:24:27.127Z,101299.03
2022-08-27T12:26:57.877Z,101304.41
2022-08-27T12:29:35.240Z,101306.03
2022-08-27T12:32:21.328Z,101301.91
2022-08-27T12:34:59.504Z,101304.94
2022-08-27T12:37:32.838Z,101302.00
2022-08-27T12:40:09.178Z,101304.75
2022-08-27T12:42:37.906Z,101305.63
2022-08-27T12:45:08.914Z,101295.53
2022-08-27T12:47:42.568Z,101300.88
2022-08-27T12:50:24.325Z,101300.41
2022-08-27T12:53:12.665Z,101298.63
2022-08-27T12:55:57.056Z,101293.53
2022-08-27T12:58:37.649Z,101305.59
2022-08-27T13:01:25.677Z,101298.59
2022-08-27T13:03:57.081Z,101292.25
2022-08-27T13:06:30.398Z,101290.34
2022-08-27T13:09:01.349Z,101289.75
2022-08-27T13:11:31.658Z,101288.28
2022-08-27T13:14:09.584Z,101290.38
2022-08-27T13:16:45.794Z,101283.03
2022-08-27T13:19:21.288Z,101282.44
2022-08-27T13:21:52.130Z,101281.94
2022-08-27T13:24:27.888Z,101282.91
2022-08-27T13:26:57.684Z,101280.72
2022-08-27T13:29:28.555Z,101281.53
2022-08-27T13:31:59.858Z,101278.81
2022-08-27T13:34:33.083Z,101271.53
2022-08-27T13:37:04.234Z,101273.00
2022-08-27T13:39:34.239Z,101276.19
2022-08-27T13:42:05.585Z,101284.16
2022-08-27T13:44:36.804Z,101277.78
2022-08-27T13:47:08.936Z,101281.94
2022-08-27T13:49:40.539Z,101278.53
2022-08-27T13:52:19.670Z,101272.81
2022-08-27T13:54:50.637Z,101279.78
2022-08-27T13:57:30.373Z,101272.25
2022-08-27T14:00:10.601Z,101273.50
2022-08-27T14:02:40.738Z,101274.41
2022-08-27T14:05:31.991Z,101272.56
2022-08-27T14:08:03.240Z,101266.56
2022-08-27T14:10:37.781Z,101271.25
2022-08-27T14:13:09.179Z,101271.03
2022-08-27T14:15:39.853Z,101272.19
2022-08-27T14:18:32.110Z,101267.06
2022-08-27T14:21:10.606Z,101272.78
2022-08-27T14:23:39.178Z,101276.44
2022-08-27T14:26:09.802Z,101272.78
2022-08-27T14:28:38.435Z,101278.94
2022-08-27T14:31:07.202Z,101271.19
2022-08-27T14:33:37.199Z,101275.72
2022-08-27T14:36:06.445Z,101274.00
2022-08-27T14:38:37.576Z,101275.66
2022-08-27T14:41:10.432Z,101273.69
2022-08-27T14:43:39.150Z,101265.75
2022-08-27T14:46:13.796Z,101268.13
2022-08-27T14:48:51.451Z,101272.66
2022-08-27T14:51:25.595Z,101273.03
2022-08-27T14:53:55.048Z,101262.34
2022-08-27T14:56:24.723Z,101269.97
2022-08-27T14:58:54.348Z,101269.25
2022-08-27T15:01:25.229Z,101265.47
2022-08-27T15:03:56.457Z,101270.66
2022-08-27T15:06:25.356Z,101270.28
2022-08-27T15:08:55.139Z,101265.94
2022-08-27T15:11:26.412Z,101263.94
2022-08-27T15:13:56.139Z,101272.75
2022-08-27T15:16:34.520Z,101270.94
2022-08-27T15:19:07.147Z,101273.75
2022-08-27T15:21:37.541Z,101269.94
2022-08-27T15:24:14.299Z,101270.53
2022-08-27T15:26:42.973Z,101272.34
2022-08-27T15:29:11.833Z,101268.84
2022-08-27T15:31:41.230Z,101266.28
2022-08-27T15:34:11.398Z,101267.72
2022-08-27T15:36:40.741Z,101266.91
2022-08-27T15:39:10.199Z,101264.47
2022-08-27T15:42:05.252Z,101266.69
2022-08-27T15:44:29.282Z,101267.44
2022-08-27T15:46:57.910Z,101269.22
2022-08-27T15:49:27.909Z,101266.16
2022-08-27T15:51:57.206Z,101267.59
2022-08-27T15:54:28.499Z,101267.78
2022-08-27T15:56:57.258Z,101267.38
2022-08-27T15:59:25.831Z,101270.50
2022-08-27T16:01:54.883Z,101268.94
2022-08-27T16:04:23.992Z,101270.09
2022-08-27T16:06:54.184Z,101269.44
2022-08-27T16:09:23.421Z,101274.81
2022-08-27T16:11:52.042Z,101269.97
2022-08-27T16:14:20.669Z,101277.41
2022-08-27T16:16:50.327Z,101279.41
2022-08-27T16:19:20.684Z,101264.84
2022-08-27T16:21:51.170Z,101274.16
2022-08-27T16:24:22.726Z,101273.56
2022-08-27T16:26:51.563Z,101273.22
2022-08-27T16:29:20.216Z,101265.06
2022-08-27T16:31:49.882Z,101278.50
2022-08-27T16:34:22.826Z,101281.28
2022-08-27T16:36:51.430Z,101277.34
2022-08-27T16:39:21.551Z,101275.34
2022-08-27T16:41:50.400Z,101280.00
2022-08-27T16:44:19.201Z,101270.03
2022-08-27T16:46:47.871Z,101273.91
2022-08-27T16:49:34.035Z,101275.22
2022-08-27T16:52:02.910Z,101271.25
2022-08-27T16:54:32.863Z,101267.03
2022-08-27T16:57:01.503Z,101270.53
2022-08-27T16:59:30.184Z,101271.16
2022-08-27T17:01:58.908Z,101273.59
2022-08-27T17:04:32.286Z,101268.06
2022-08-27T17:07:07.042Z,101263.97
2022-08-27T17:09:38.649Z,101270.03
2022-08-27T17:12:07.926Z,101275.13
2022-08-27T17:14:38.005Z,101266.00
2022-08-27T17:17:09.500Z,101276.31
2022-08-27T17:19:38.148Z,101266.34
2022-08-27T17:22:09.518Z,101267.72
2022-08-27T17:24:39.721Z,101264.00
2022-08-27T17:27:08.383Z,101258.84
2022-08-27T17:29:37.807Z,101272.50
2022-08-27T17:32:09.989Z,101269.13
2022-08-27T17:34:38.671Z,101275.22
2022-08-27T17:37:07.665Z,101274.13
2022-08-27T17:39:36.289Z,101273.84
2022-08-27T17:42:08.431Z,101278.25
2022-08-27T17:44:39.102Z,101274.16
2022-08-27T17:47:09.209Z,101279.00
2022-08-27T17:49:38.351Z,101282.41
2022-08-27T17:52:10.751Z,101281.88
2022-08-27T17:54:43.376Z,101281.50
2022-08-27T17:57:17.843Z,101285.56
2022-08-27T17:59:46.821Z,101291.28
2022-08-27T18:02:19.983Z,101288.22
2022-08-27T18:04:49.291Z,101294.53
2022-08-27T18:07:19.262Z,101291.13
2022-08-27T18:09:48.452Z,101297.47
2022-08-27T18:12:21.980Z,101301.13
2022-08-27T18:14:54.876Z,101292.53
2022-08-27T18:17:23.515Z,101298.34
2022-08-27T18:19:52.154Z,101299.69
2022-08-27T18:22:21.591Z,101302.75
2022-08-27T18:24:50.192Z,101305.28
2022-08-27T18:27:21.567Z,101306.38
2022-08-27T18:29:50.229Z,101301.78
2022-08-27T18:32:25.505Z,101316.63
2022-08-27T18:34:54.281Z,101318.59
2022-08-27T18:37:23.718Z,101313.66
2022-08-27T18:39:52.318Z,101314.47
2022-08-27T18:42:22.354Z,101314.53
2022-08-27T18:44:50.990Z,101312.75
2022-08-27T18:47:19.623Z,101311.34
2022-08-27T18:49:48.328Z,101317.34
2022-08-27T18:52:17.535Z,101315.88
2022-08-27T18:54:46.164Z,101322.13
2022-08-27T18:57:14.767Z,101323.97
2022-08-27T18:59:44.854Z,101331.00
2022-08-27T19:02:21.036Z,101331.91
2022-08-27T19:04:50.162Z,101338.59
2022-08-27T19:07:18.887Z,101333.13
2022-08-27T19:09:47.653Z,101325.16
2022-08-27T19:12:17.538Z,101330.28
2022-08-27T19:14:48.447Z,101334.03
2022-08-27T19:17:26.220Z,101334.03
2022-08-27T19:19:55.985Z,101336.03
2022-08-27T19:22:25.129Z,101341.78
2022-08-27T19:24:54.767Z,101334.44
2022-08-27T19:27:26.205Z,101339.22
2022-08-27T19:29:56.331Z,101348.97
2022-08-27T19:32:25.395Z,101345.66
2022-08-27T19:34:54.899Z,101346.16
2022-08-27T19:37:26.658Z,101348.41
2022-08-27T19:39:55.273Z,101351.91
2022-08-27T19:42:24.247Z,101358.53
2022-08-27T19:44:52.884Z,101356.25
2022-08-27T19:47:25.946Z,101356.94
2022-08-27T19:49:56.298Z,101363.81
2022-08-27T19:52:25.355Z,101359.94
2022-08-27T19:55:12.734Z,101360.03
2022-08-27T19:57:42.982Z,101357.75
2022-08-27T20:00:14.243Z,101358.91
2022-08-27T20:02:44.271Z,101359.16
2022-08-27T20:05:20.238Z,101353.81
2022-08-27T20:07:49.435Z,101352.16
2022-08-27T20:10:18.816Z,101350.31
2022-08-27T20:12:47.487Z,101351.34
2022-08-27T20:15:16.198Z,101352.03
2022-08-27T20:17:46.177Z,101354.19
2022-08-27T20:20:21.046Z,101355.94
2022-08-27T20:22:49.708Z,101353.69
2022-08-27T20:25:19.218Z,101348.00
2022-08-27T20:27:48.134Z,101348.41
2022-08-27T20:30:18.175Z,101348.72
2022-08-27T20:32:48.267Z,101354.53
2022-08-27T20:35:18.624Z,101351.84
2022-08-27T20:37:47.407Z,101357.22
2022-08-27T20:40:19.771Z,101362.44
2022-08-27T20:42:48.419Z,101362.78
2022-08-27T20:45:18.571Z,101366.53
2022-08-27T20:47:50.791Z,101362.56
2022-08-27T20:50:21.893Z,101366.63
2022-08-27T20:52:52.116Z,101367.47
2022-08-27T20:55:21.910Z,101368.56
2022-08-27T20:58:08.449Z,101372.97
2022-08-27T21:00:40.583Z,101371.03
2022-08-27T21:03:11.524Z,101373.88
2022-08-27T21:05:43.649Z,101377.50
2022-08-27T21:08:12.552Z,101379.47
2022-08-27T21:10:47.056Z,101378.59
2022-08-27T21:13:16.666Z,101384.97
2022-08-27T21:15:45.371Z,101383.78
2022-08-27T21:18:15.308Z,101374.94
2022-08-27T21:20:44.381Z,101382.84
2022-08-27T21:23:13.064Z,101380.34
2022-08-27T21:25:42.260Z,101395.84
2022-08-27T21:28:10.974Z,101386.66
2022-08-27T21:30:39.707Z,101392.94
2022-08-27T21:33:08.307Z,101396.31
2022-08-27T21:35:38.613Z,101399.03
2022-08-27T21:38:07.197Z,101399.66
2022-08-27T21:40:35.920Z,101402.75
2022-08-27T21:43:04.788Z,101402.50
2022-08-27T21:45:33.415Z,101403.28
2022-08-27T21:48:02.044Z,101402.22
2022-08-27T21:50:30.993Z,101411.50
2022-08-27T21:53:00.951Z,101406.16
2022-08-27T21:55:29.586Z,101406.41
2022-08-27T21:57:58.847Z,101407.78
2022-08-27T22:00:43.846Z,101412.88
2022-08-27T22:03:14.251Z,101413.47
2022-08-27T22:05:44.510Z,101404.75
2022-08-27T22:08:16.416Z,101423.19
2022-08-27T22:10:47.885Z,101421.34
2022-08-27T22:13:16.954Z,101415.41
2022-08-27T22:15:45.563Z,101427.44
2022-08-27T22:18:14.312Z,101425.28
2022-08-27T22:20:43.776Z,101419.28
2022-08-27T22:23:14.854Z,101411.72
2022-08-27T22:25:44.769Z,101422.09
2022-08-27T22:28:14.739Z,101415.13
2022-08-27T22:30:44.872Z,101417.38
2022-08-27T22:33:14.403Z,101419.91
2022-08-27T22:35:43.311Z,101417.31
2022-08-27T22:38:12.213Z,101414.00
2022-08-27T22:40:42.753Z,101415.38
2022-08-27T22:43:11.451Z,101421.84
2022-08-27T22:45:40.090Z,101422.38
2022-08-27T22:48:09.409Z,101428.56
2022-08-27T22:50:38.066Z,101426.63
2022-08-27T22:53:06.730Z,101418.47
2022-08-27T22:55:35.830Z,101425.50
2022-08-27T22:58:05.990Z,101428.28
2022-08-27T23:00:37.615Z,101433.06
2022-08-27T23:03:07.369Z,101423.25
2022-08-27T23:05:41.372Z,101434.47
2022-08-27T23:08:13.332Z,101435.47
2022-08-27T23:10:43.343Z,101433.59
2022-08-27T23:13:13.717Z,101430.94
2022-08-27T23:15:43.222Z,101435.28
2022-08-27T23:18:12.258Z,101437.38
2022-08-27T23:20:41.645Z,101439.63
2022-08-27T23:23:10.267Z,101434.72
2022-08-27T23:25:57.186Z,101436.72
2022-08-27T23:28:27.186Z,101430.25
2022-08-27T23:30:56.345Z,101429.22
2022-08-27T23:33:25.070Z,101431.81
2022-08-27T23:35:53.733Z,101432.41
2022-08-27T23:38:23.645Z,101425.91
2022-08-27T23:40:53.442Z,101433.22
2022-08-27T23:43:22.885Z,101435.47
2022-08-27T23:45:53.126Z,101441.00
2022-08-27T23:48:21.727Z,101439.56
2022-08-27T23:50:50.613Z,101432.56
2022-08-27T23:53:19.543Z,101440.91
2022-08-27T23:55:48.381Z,101439.47
2022-08-27T23:58:17.061Z,101433.63
